createdAt,value
2023-01-19T00:00:58.442Z,516.00
2023-01-19T00:01:58.403Z,516.00
2023-01-19T00:02:58.408Z,518.00
2023-01-19T00:03:58.360Z,518.00
2023-01-19T00:04:58.336Z,516.00
2023-01-19T00:05:58.336Z,518.00
2023-01-19T00:06:58.309Z,516.00
2023-01-19T00:07:58.746Z,514.00
2023-01-19T00:08:58.264Z,516.00
2023-01-19T00:09:58.248Z,518.00
2023-01-19T00:10:58.235Z,515.00
2023-01-19T00:11:58.215Z,515.00
2023-01-19T00:12:58.583Z,516.00
2023-01-19T00:13:58.183Z,516.00
2023-01-19T00:14:58.158Z,520.00
2023-01-19T00:15:58.180Z,520.00
2023-01-19T00:16:58.124Z,520.00
2023-01-19T00:17:58.083Z,516.00
2023-01-19T00:18:58.072Z,514.00
2023-01-19T00:19:58.052Z,513.00
2023-01-19T00:20:58.026Z,511.00
2023-01-19T00:21:58.025Z,513.00
2023-01-19T00:22:58.405Z,515.00
2023-01-19T00:23:57.983Z,516.00
2023-01-19T00:24:57.961Z,513.00
2023-01-19T00:25:57.947Z,514.00
2023-01-19T00:26:57.924Z,514.00
2023-01-19T00:27:59.857Z,514.00
2023-01-19T00:28:57.887Z,513.00
2023-01-19T00:29:57.865Z,510.00
2023-01-19T00:30:57.840Z,511.00
2023-01-19T00:31:57.821Z,511.00
2023-01-19T00:32:58.474Z,508.00
2023-01-19T00:33:57.786Z,506.00
2023-01-19T00:34:57.768Z,510.00
2023-01-19T00:35:57.747Z,512.00
2023-01-19T00:36:57.736Z,508.00
2023-01-19T00:37:57.709Z,505.00
2023-01-19T00:38:57.694Z,502.00
2023-01-19T00:39:57.670Z,502.00
2023-01-19T00:40:57.656Z,500.00
2023-01-19T00:41:57.630Z,498.00
2023-01-19T00:42:58.013Z,500.00
2023-01-19T00:43:57.582Z,501.00
2023-01-19T00:44:57.557Z,504.00
2023-01-19T00:45:57.557Z,506.00
2023-01-19T00:46:57.516Z,508.00
2023-01-19T00:47:57.515Z,506.00
2023-01-19T00:48:57.475Z,504.00
2023-01-19T00:49:57.449Z,503.00
2023-01-19T00:50:57.431Z,501.00
2023-01-19T00:51:57.423Z,499.00
2023-01-19T00:52:57.728Z,500.00
2023-01-19T00:53:57.387Z,500.00
2023-01-19T00:54:57.364Z,497.00
2023-01-19T00:55:57.346Z,497.00
2023-01-19T00:56:57.334Z,498.00
2023-01-19T00:57:57.308Z,497.00
2023-01-19T00:58:57.292Z,496.00
2023-01-19T00:59:57.268Z,494.00
2023-01-19T01:00:57.409Z,491.00
2023-01-19T01:01:57.359Z,493.00
2023-01-19T01:02:57.291Z,492.00
2023-01-19T01:03:57.209Z,490.00
2023-01-19T01:04:57.197Z,490.00
2023-01-19T01:05:57.178Z,491.00
2023-01-19T01:06:57.171Z,490.00
2023-01-19T01:07:57.156Z,492.00
2023-01-19T01:08:57.138Z,493.00
2023-01-19T01:09:57.136Z,492.00
2023-01-19T01:10:57.104Z,496.00
2023-01-19T01:11:57.097Z,495.00
2023-01-19T01:13:23.729Z,493.00
2023-01-19T01:13:58.068Z,494.00
2023-01-19T01:14:57.033Z,494.00
2023-01-19T01:15:57.041Z,490.00
2023-01-19T01:16:57.032Z,492.00
2023-01-19T01:17:56.977Z,489.00
2023-01-19T01:18:56.967Z,488.00
2023-01-19T01:19:56.950Z,486.00
2023-01-19T01:20:56.924Z,485.00
2023-01-19T01:21:56.907Z,485.00
2023-01-19T01:22:56.925Z,484.00
2023-01-19T01:23:56.894Z,483.00
2023-01-19T01:24:56.862Z,487.00
2023-01-19T01:25:56.851Z,488.00
2023-01-19T01:26:56.842Z,491.00
2023-01-19T01:27:56.810Z,492.00
2023-01-19T01:28:56.795Z,491.00
2023-01-19T01:29:56.777Z,489.00
2023-01-19T01:30:56.761Z,484.00
2023-01-19T01:31:56.786Z,484.00
2023-01-19T01:32:56.744Z,483.00
2023-01-19T01:33:56.725Z,487.00
2023-01-19T01:34:56.700Z,488.00
2023-01-19T01:35:56.694Z,488.00
2023-01-19T01:36:56.657Z,490.00
2023-01-19T01:37:56.641Z,486.00
2023-01-19T01:38:56.645Z,486.00
2023-01-19T01:39:56.609Z,489.00
2023-01-19T01:40:56.583Z,489.00
2023-01-19T01:41:56.640Z,492.00
2023-01-19T01:42:56.540Z,488.00
2023-01-19T01:43:56.535Z,486.00
2023-01-19T01:44:56.522Z,485.00
2023-01-19T01:45:56.515Z,486.00
2023-01-19T01:46:56.473Z,484.00
2023-01-19T01:47:56.442Z,481.00
2023-01-19T01:48:56.417Z,480.00
2023-01-19T01:49:56.383Z,480.00
2023-01-19T01:50:56.371Z,483.00
2023-01-19T01:51:56.351Z,475.00
2023-01-19T01:53:07.573Z,473.00
2023-01-19T01:54:56.297Z,476.00
2023-01-19T01:55:56.279Z,475.00
2023-01-19T01:56:56.263Z,474.00
2023-01-19T01:57:56.242Z,475.00
2023-01-19T01:58:56.213Z,474.00
2023-01-19T01:59:56.201Z,477.00
2023-01-19T02:00:56.240Z,476.00
2023-01-19T02:01:56.216Z,479.00
2023-01-19T02:02:56.225Z,477.00
2023-01-19T02:03:56.136Z,475.00
2023-01-19T02:04:56.100Z,480.00
2023-01-19T02:05:56.095Z,480.00
2023-01-19T02:06:56.078Z,480.00
2023-01-19T02:07:56.063Z,481.00
2023-01-19T02:08:56.043Z,483.00
2023-01-19T02:09:56.032Z,479.00
2023-01-19T02:10:55.995Z,475.00
2023-01-19T02:11:55.974Z,478.00
2023-01-19T02:12:55.959Z,478.00
2023-01-19T02:13:55.937Z,477.00
2023-01-19T02:14:55.914Z,473.00
2023-01-19T02:15:55.924Z,474.00
2023-01-19T02:16:55.927Z,474.00
2023-01-19T02:17:55.854Z,474.00
2023-01-19T02:18:55.831Z,470.00
2023-01-19T02:19:55.804Z,469.00
2023-01-19T02:20:55.785Z,467.00
2023-01-19T02:21:55.775Z,463.00
2023-01-19T02:22:55.751Z,463.00
2023-01-19T02:23:55.739Z,461.00
2023-01-19T02:24:55.715Z,462.00
2023-01-19T02:25:55.707Z,462.00
2023-01-19T02:26:55.699Z,461.00
2023-01-19T02:27:55.663Z,463.00
2023-01-19T02:28:55.663Z,462.00
2023-01-19T02:29:55.628Z,461.00
2023-01-19T02:30:55.633Z,467.00
2023-01-19T02:31:55.594Z,471.00
2023-01-19T02:32:55.569Z,471.00
2023-01-19T02:33:55.551Z,470.00
2023-01-19T02:34:55.518Z,469.00
2023-01-19T02:35:55.498Z,467.00
2023-01-19T02:36:55.485Z,468.00
2023-01-19T02:37:55.465Z,467.00
2023-01-19T02:38:55.451Z,466.00
2023-01-19T02:39:55.445Z,467.00
2023-01-19T02:40:55.395Z,468.00
2023-01-19T02:41:55.371Z,467.00
2023-01-19T02:42:55.346Z,466.00
2023-01-19T02:43:55.338Z,465.00
2023-01-19T02:44:55.311Z,464.00
2023-01-19T02:45:55.316Z,464.00
2023-01-19T02:46:55.278Z,463.00
2023-01-19T02:47:55.280Z,461.00
2023-01-19T02:48:55.246Z,459.00
2023-01-19T02:49:55.239Z,458.00
2023-01-19T02:50:55.224Z,460.00
2023-01-19T02:51:55.211Z,462.00
2023-01-19T02:52:55.187Z,461.00
2023-01-19T02:53:55.189Z,460.00
2023-01-19T02:54:55.158Z,459.00
2023-01-19T02:55:55.137Z,457.00
2023-01-19T02:56:55.115Z,458.00
2023-01-19T02:57:55.093Z,458.00
2023-01-19T02:58:55.088Z,457.00
2023-01-19T02:59:55.060Z,461.00
2023-01-19T03:00:55.074Z,461.00
2023-01-19T03:01:55.091Z,458.00
2023-01-19T03:02:55.059Z,456.00
2023-01-19T03:03:54.982Z,452.00
2023-01-19T03:04:54.949Z,450.00
2023-01-19T03:05:54.929Z,450.00
2023-01-19T03:06:54.923Z,454.00
2023-01-19T03:07:54.897Z,451.00
2023-01-19T03:08:54.897Z,450.00
2023-01-19T03:09:54.866Z,452.00
2023-01-19T03:10:54.832Z,455.00
2023-01-19T03:11:54.812Z,452.00
2023-01-19T03:12:54.793Z,452.00
2023-01-19T03:13:54.799Z,451.00
2023-01-19T03:14:54.770Z,452.00
2023-01-19T03:15:54.849Z,456.00
2023-01-19T03:16:54.787Z,457.00
2023-01-19T03:17:54.681Z,458.00
2023-01-19T03:18:54.673Z,454.00
2023-01-19T03:19:54.646Z,455.00
2023-01-19T03:20:54.643Z,453.00
2023-01-19T03:21:54.608Z,454.00
2023-01-19T03:22:54.582Z,453.00
2023-01-19T03:23:54.568Z,452.00
2023-01-19T03:24:54.551Z,452.00
2023-01-19T03:25:54.537Z,451.00
2023-01-19T03:26:54.515Z,451.00
2023-01-19T03:27:54.499Z,451.00
2023-01-19T03:28:54.474Z,452.00
2023-01-19T03:29:54.451Z,452.00
2023-01-19T03:30:54.448Z,451.00
2023-01-19T03:31:54.414Z,449.00
2023-01-19T03:32:54.396Z,447.00
2023-01-19T03:33:54.393Z,448.00
2023-01-19T03:34:54.358Z,448.00
2023-01-19T03:35:54.333Z,450.00
2023-01-19T03:36:54.313Z,450.00
2023-01-19T03:37:54.296Z,451.00
2023-01-19T03:38:54.270Z,450.00
2023-01-19T03:39:54.265Z,448.00
2023-01-19T03:40:54.240Z,449.00
2023-01-19T03:41:54.217Z,447.00
2023-01-19T03:42:54.193Z,446.00
2023-01-19T03:43:54.167Z,444.00
2023-01-19T03:44:54.134Z,442.00
2023-01-19T03:45:54.120Z,440.00
2023-01-19T03:46:54.089Z,441.00
2023-01-19T03:47:54.072Z,442.00
2023-01-19T03:48:54.051Z,442.00
2023-01-19T03:49:54.044Z,441.00
2023-01-19T03:50:54.009Z,440.00
2023-01-19T03:51:53.980Z,440.00
2023-01-19T03:52:53.961Z,438.00
2023-01-19T03:53:53.947Z,439.00
2023-01-19T03:54:53.925Z,443.00
2023-01-19T03:55:53.908Z,441.00
2023-01-19T03:56:53.877Z,442.00
2023-01-19T03:57:53.855Z,442.00
2023-01-19T03:58:56.117Z,441.00
2023-01-19T03:59:53.825Z,441.00
2023-01-19T04:00:53.844Z,441.00
2023-01-19T04:01:53.864Z,439.00
2023-01-19T04:02:53.762Z,442.00
2023-01-19T04:03:53.734Z,442.00
2023-01-19T04:04:53.715Z,442.00
2023-01-19T04:05:53.683Z,441.00
2023-01-19T04:06:53.659Z,438.00
2023-01-19T04:07:53.647Z,436.00
2023-01-19T04:08:53.621Z,436.00
2023-01-19T04:09:53.612Z,433.00
2023-01-19T04:10:53.587Z,434.00
2023-01-19T04:11:53.563Z,435.00
2023-01-19T04:12:53.561Z,438.00
2023-01-19T04:13:53.523Z,442.00
2023-01-19T04:14:53.493Z,444.00
2023-01-19T04:15:53.500Z,444.00
2023-01-19T04:16:53.443Z,442.00
2023-01-19T04:17:53.413Z,441.00
2023-01-19T04:18:53.416Z,441.00
2023-01-19T04:19:53.372Z,439.00
2023-01-19T04:20:53.332Z,441.00
2023-01-19T04:21:53.309Z,440.00
2023-01-19T04:22:53.280Z,441.00
2023-01-19T04:23:53.264Z,442.00
2023-01-19T04:24:53.238Z,442.00
2023-01-19T04:25:53.218Z,445.00
2023-01-19T04:26:53.220Z,445.00
2023-01-19T04:27:53.183Z,445.00
2023-01-19T04:28:53.143Z,448.00
2023-01-19T04:29:53.121Z,448.00
2023-01-19T04:30:53.214Z,445.00
2023-01-19T04:31:53.081Z,445.00
2023-01-19T04:32:53.055Z,446.00
2023-01-19T04:33:53.046Z,442.00
2023-01-19T04:34:53.010Z,441.00
2023-01-19T04:35:54.437Z,439.00
2023-01-19T04:36:52.964Z,441.00
2023-01-19T04:37:52.929Z,439.00
2023-01-19T04:38:52.897Z,440.00
2023-01-19T04:39:52.886Z,443.00
2023-01-19T04:40:52.893Z,438.00
2023-01-19T04:41:52.829Z,435.00
2023-01-19T04:42:52.798Z,437.00
2023-01-19T04:43:52.791Z,436.00
2023-01-19T04:44:52.754Z,437.00
2023-01-19T04:45:52.736Z,438.00
2023-01-19T04:46:52.724Z,439.00
2023-01-19T04:47:52.694Z,438.00
2023-01-19T04:48:52.675Z,437.00
2023-01-19T04:49:52.643Z,435.00
2023-01-19T04:50:52.637Z,434.00
2023-01-19T04:51:52.601Z,432.00
2023-01-19T04:52:52.595Z,432.00
2023-01-19T04:53:52.545Z,432.00
2023-01-19T04:54:52.549Z,434.00
2023-01-19T04:55:52.495Z,432.00
2023-01-19T04:56:52.473Z,434.00
2023-01-19T04:57:52.441Z,435.00
2023-01-19T04:58:52.412Z,438.00
2023-01-19T04:59:52.394Z,439.00
2023-01-19T05:00:52.420Z,435.00
2023-01-19T05:01:52.385Z,438.00
2023-01-19T05:02:52.344Z,438.00
2023-01-19T05:03:52.302Z,436.00
2023-01-19T05:04:52.259Z,439.00
2023-01-19T05:05:52.246Z,437.00
2023-01-19T05:06:52.209Z,438.00
2023-01-19T05:07:52.186Z,438.00
2023-01-19T05:08:52.157Z,439.00
2023-01-19T05:09:52.145Z,439.00
2023-01-19T05:10:52.148Z,438.00
2023-01-19T05:11:52.096Z,437.00
2023-01-19T05:12:52.075Z,437.00
2023-01-19T05:13:52.057Z,435.00
2023-01-19T05:14:52.035Z,435.00
2023-01-19T05:15:52.102Z,434.00
2023-01-19T05:16:51.988Z,432.00
2023-01-19T05:17:51.959Z,432.00
2023-01-19T05:18:51.940Z,432.00
2023-01-19T05:19:51.901Z,432.00
2023-01-19T05:20:51.889Z,433.00
2023-01-19T05:21:51.883Z,429.00
2023-01-19T05:22:51.841Z,428.00
2023-01-19T05:23:51.850Z,427.00
2023-01-19T05:24:51.811Z,426.00
2023-01-19T05:25:51.792Z,429.00
2023-01-19T05:26:51.740Z,432.00
2023-01-19T05:27:51.733Z,434.00
2023-01-19T05:28:51.703Z,434.00
2023-01-19T05:29:51.672Z,437.00
2023-01-19T05:30:51.679Z,437.00
2023-01-19T05:31:51.671Z,435.00
2023-01-19T05:32:51.646Z,434.00
2023-01-19T05:33:51.606Z,435.00
2023-01-19T05:34:51.566Z,433.00
2023-01-19T05:35:51.541Z,433.00
2023-01-19T05:36:51.521Z,430.00
2023-01-19T05:37:51.509Z,429.00
2023-01-19T05:38:51.479Z,430.00
2023-01-19T05:39:51.459Z,430.00
2023-01-19T05:40:51.445Z,431.00
2023-01-19T05:41:51.416Z,431.00
2023-01-19T05:42:51.385Z,430.00
2023-01-19T05:43:51.371Z,428.00
2023-01-19T05:44:51.346Z,429.00
2023-01-19T05:45:51.313Z,427.00
2023-01-19T05:46:51.346Z,428.00
2023-01-19T05:47:51.259Z,429.00
2023-01-19T05:48:51.222Z,428.00
2023-01-19T05:49:51.200Z,430.00
2023-01-19T05:50:51.186Z,433.00
2023-01-19T05:51:51.159Z,432.00
2023-01-19T05:52:51.121Z,433.00
2023-01-19T05:53:51.146Z,430.00
2023-01-19T05:54:51.065Z,428.00
2023-01-19T05:55:51.026Z,427.00
2023-01-19T05:56:51.011Z,425.00
2023-01-19T05:57:50.980Z,423.00
2023-01-19T05:58:50.947Z,421.00
2023-01-19T05:59:50.930Z,423.00
2023-01-19T06:00:50.953Z,426.00
2023-01-19T06:01:50.991Z,425.00
2023-01-19T06:02:50.918Z,428.00
2023-01-19T06:03:50.807Z,430.00
2023-01-19T06:04:50.793Z,429.00
2023-01-19T06:05:50.769Z,427.00
2023-01-19T06:06:50.735Z,425.00
2023-01-19T06:07:50.702Z,421.00
2023-01-19T06:08:50.676Z,422.00
2023-01-19T06:09:50.649Z,421.00
2023-01-19T06:10:50.634Z,419.00
2023-01-19T06:11:50.604Z,420.00
2023-01-19T06:12:50.575Z,425.00
2023-01-19T06:13:50.549Z,425.00
2023-01-19T06:14:50.537Z,424.00
2023-01-19T06:15:50.509Z,420.00
2023-01-19T06:16:50.507Z,420.00
2023-01-19T06:17:50.456Z,415.00
2023-01-19T06:18:50.443Z,413.00
2023-01-19T06:19:50.420Z,411.00
2023-01-19T06:20:50.394Z,409.00
2023-01-19T06:21:50.384Z,413.00
2023-01-19T06:22:50.355Z,412.00
2023-01-19T06:23:50.328Z,413.00
2023-01-19T06:24:50.314Z,414.00
2023-01-19T06:25:50.287Z,414.00
2023-01-19T06:26:50.255Z,414.00
2023-01-19T06:27:50.292Z,417.00
2023-01-19T06:28:50.227Z,417.00
2023-01-19T06:29:50.198Z,418.00
2023-01-19T06:30:50.206Z,420.00
2023-01-19T06:31:50.194Z,419.00
2023-01-19T06:32:50.133Z,417.00
2023-01-19T06:33:50.162Z,414.00
2023-01-19T06:34:51.055Z,416.00
2023-01-19T06:35:50.092Z,419.00
2023-01-19T06:36:50.067Z,422.00
2023-01-19T06:37:50.044Z,420.00
2023-01-19T06:38:50.053Z,419.00
2023-01-19T06:39:50.000Z,421.00
2023-01-19T06:40:49.973Z,420.00
2023-01-19T06:41:49.975Z,421.00
2023-01-19T06:42:50.051Z,425.00
2023-01-19T06:43:49.911Z,427.00
2023-01-19T06:44:49.884Z,431.00
2023-01-19T06:45:49.912Z,433.00
2023-01-19T06:46:49.839Z,435.00
2023-01-19T06:47:49.846Z,439.00
2023-01-19T06:48:49.816Z,442.00
2023-01-19T06:49:49.780Z,444.00
2023-01-19T06:50:49.756Z,535.00
2023-01-19T06:51:49.750Z,608.00
2023-01-19T06:52:49.719Z,624.00
2023-01-19T06:53:49.690Z,656.00
2023-01-19T06:54:49.804Z,729.00
2023-01-19T06:55:49.671Z,755.00
2023-01-19T06:56:49.622Z,773.00
2023-01-19T06:57:49.671Z,784.00
2023-01-19T06:58:49.583Z,794.00
2023-01-19T06:59:49.561Z,841.00
2023-01-19T07:00:49.572Z,858.00
2023-01-19T07:01:49.608Z,877.00
2023-01-19T07:02:49.514Z,895.00
2023-01-19T07:03:49.476Z,906.00
2023-01-19T07:04:49.427Z,926.00
2023-01-19T07:05:49.391Z,947.00
2023-01-19T07:06:49.395Z,977.00
2023-01-19T07:07:49.339Z,1012.00
2023-01-19T07:08:49.307Z,1025.00
2023-01-19T07:09:49.268Z,1032.00
2023-01-19T07:11:26.319Z,1046.00
2023-01-19T07:11:50.224Z,1067.00
2023-01-19T07:12:49.198Z,1088.00
2023-01-19T07:13:49.277Z,1093.00
2023-01-19T07:14:49.146Z,1113.00
2023-01-19T07:15:49.100Z,1127.00
2023-01-19T07:16:49.104Z,1163.00
2023-01-19T07:17:49.046Z,1169.00
2023-01-19T07:18:49.003Z,1201.00
2023-01-19T07:19:48.974Z,1207.00
2023-01-19T07:20:48.981Z,1216.00
2023-01-19T07:21:48.917Z,1226.00
2023-01-19T09:18:45.332Z,722.00
2023-01-19T09:37:44.883Z,648.00
2023-01-19T09:38:44.867Z,654.00
2023-01-19T09:39:44.863Z,658.00
2023-01-19T09:40:44.812Z,655.00
2023-01-19T09:41:44.768Z,655.00
2023-01-19T09:42:44.758Z,662.00
2023-01-19T09:43:44.768Z,675.00
2023-01-19T09:44:44.671Z,711.00
2023-01-19T09:45:44.679Z,698.00
2023-01-19T09:46:44.698Z,698.00
2023-01-19T09:47:44.604Z,695.00
2023-01-19T09:48:44.567Z,692.00
2023-01-19T09:49:44.559Z,682.00
2023-01-19T09:50:44.513Z,694.00
2023-01-19T09:51:44.537Z,843.00
2023-01-19T09:52:44.464Z,812.00
2023-01-19T09:53:44.441Z,838.00
2023-01-19T09:54:44.451Z,895.00
2023-01-19T09:55:44.441Z,948.00
2023-01-19T09:56:44.391Z,988.00
2023-01-19T09:57:44.331Z,1003.00
2023-01-19T09:58:44.362Z,1009.00
2023-01-19T09:59:44.280Z,1008.00
2023-01-19T10:00:44.351Z,1031.00
2023-01-19T10:01:44.313Z,1054.00
2023-01-19T10:02:44.308Z,1091.00
2023-01-19T10:03:44.154Z,1136.00
2023-01-19T10:04:44.128Z,1134.00
2023-01-19T10:05:44.086Z,1131.00
2023-01-19T10:06:44.071Z,1145.00
2023-01-19T10:07:44.064Z,1159.00
2023-01-19T10:08:44.017Z,1177.00
2023-01-19T10:09:43.979Z,1203.00
2023-01-19T10:10:43.947Z,1225.00
2023-01-19T10:11:52.582Z,1236.00
2023-01-19T10:12:44.867Z,1247.00
2023-01-19T10:13:43.820Z,1282.00
2023-01-19T10:14:43.793Z,1303.00
2023-01-19T10:15:43.770Z,1331.00
2023-01-19T10:16:43.718Z,1333.00
2023-01-19T10:17:43.697Z,1344.00
2023-01-19T10:18:43.652Z,1352.00
2023-01-19T10:19:46.362Z,1369.00
2023-01-19T10:20:43.590Z,1381.00
2023-01-19T10:21:43.557Z,1420.00
2023-01-19T10:22:43.506Z,1424.00
2023-01-19T10:23:43.458Z,1436.00
2023-01-19T10:24:43.424Z,1449.00
2023-01-19T10:25:43.496Z,1457.00
2023-01-19T10:26:43.377Z,1467.00
2023-01-19T10:27:43.354Z,1545.00
2023-01-19T10:28:43.272Z,1548.00
2023-01-19T10:29:43.231Z,1537.00
2023-01-19T10:30:43.239Z,1542.00
2023-01-19T10:31:43.172Z,1556.00
2023-01-19T10:32:43.102Z,1590.00
2023-01-19T10:33:43.059Z,1642.00
2023-01-19T10:34:43.015Z,1646.00
2023-01-19T10:35:43.006Z,1613.00
2023-01-19T10:36:42.977Z,1634.00
2023-01-19T10:37:42.918Z,1689.00
2023-01-19T10:38:42.883Z,1718.00
2023-01-19T10:39:42.831Z,1776.00
2023-01-19T10:40:42.793Z,1920.00
2023-01-19T10:41:42.723Z,1988.00
2023-01-19T10:42:42.691Z,1876.00
2023-01-19T10:43:42.614Z,1872.00
2023-01-19T10:44:42.581Z,1869.00
2023-01-19T10:45:42.582Z,1860.00
2023-01-19T10:46:42.501Z,1462.00
2023-01-19T10:47:42.484Z,883.00
2023-01-19T10:48:42.411Z,726.00
2023-01-19T10:49:42.492Z,629.00
2023-01-19T10:50:42.462Z,591.00
2023-01-19T10:51:42.384Z,587.00
2023-01-19T10:52:42.354Z,578.00
2023-01-19T10:53:42.379Z,535.00
2023-01-19T10:54:42.373Z,546.00
2023-01-19T10:55:42.376Z,518.00
2023-01-19T10:56:42.430Z,469.00
2023-01-19T10:57:42.568Z,468.00
2023-01-19T10:58:42.500Z,465.00
2023-01-19T10:59:42.494Z,481.00
2023-01-19T11:00:42.650Z,465.00
2023-01-19T11:01:42.640Z,459.00
2023-01-19T11:02:42.655Z,443.00
2023-01-19T11:03:42.608Z,426.00
2023-01-19T11:04:42.721Z,446.00
2023-01-19T11:05:42.718Z,419.00
2023-01-19T11:06:42.767Z,436.00
2023-01-19T11:07:42.809Z,431.00
2023-01-19T11:08:42.853Z,432.00
2023-01-19T11:09:42.911Z,478.00
2023-01-19T11:10:42.957Z,527.00
2023-01-19T11:11:42.997Z,583.00
2023-01-19T11:12:43.029Z,592.00
2023-01-19T11:13:43.069Z,611.00
2023-01-19T11:14:43.112Z,659.00
2023-01-19T11:15:43.111Z,702.00
2023-01-19T11:16:43.176Z,719.00
2023-01-19T11:17:43.140Z,733.00
2023-01-19T11:18:43.158Z,740.00
2023-01-19T11:19:43.194Z,792.00
2023-01-19T11:20:43.172Z,796.00
2023-01-19T11:21:43.175Z,805.00
2023-01-19T11:22:43.173Z,839.00
2023-01-19T11:23:43.193Z,891.00
2023-01-19T11:24:43.174Z,891.00
2023-01-19T11:25:43.149Z,900.00
2023-01-19T11:26:43.169Z,918.00
2023-01-19T11:27:43.143Z,953.00
2023-01-19T11:28:45.054Z,966.00
2023-01-19T11:29:43.123Z,990.00
2023-01-19T11:30:43.133Z,988.00
2023-01-19T11:31:43.154Z,999.00
2023-01-19T11:32:43.132Z,1024.00
2023-01-19T11:33:43.117Z,1046.00
2023-01-19T11:34:43.095Z,1117.00
2023-01-19T11:35:43.099Z,1114.00
2023-01-19T11:36:43.090Z,1106.00
2023-01-19T11:37:43.093Z,1196.00
2023-01-19T11:38:43.065Z,1299.00
2023-01-19T11:39:43.058Z,1312.00
2023-01-19T11:40:43.035Z,1296.00
2023-01-19T11:41:43.042Z,880.00
2023-01-19T11:42:43.028Z,757.00
2023-01-19T11:43:49.020Z,589.00
2023-01-19T11:44:44.053Z,567.00
2023-01-19T11:45:43.179Z,630.00
2023-01-19T11:46:43.150Z,629.00
2023-01-19T11:47:43.176Z,637.00
2023-01-19T11:48:43.184Z,651.00
2023-01-19T11:49:43.233Z,668.00
2023-01-19T11:50:43.256Z,677.00
2023-01-19T11:51:43.290Z,683.00
2023-01-19T11:52:43.324Z,711.00
2023-01-19T11:53:43.291Z,725.00
2023-01-19T11:54:43.574Z,720.00
2023-01-19T11:55:43.342Z,712.00
2023-01-19T11:56:43.329Z,707.00
2023-01-19T11:57:43.329Z,714.00
2023-01-19T11:58:43.335Z,714.00
2023-01-19T11:59:43.340Z,713.00
2023-01-19T12:00:43.345Z,713.00
2023-01-19T12:01:43.354Z,709.00
2023-01-19T12:02:43.346Z,710.00
2023-01-19T12:03:43.373Z,711.00
2023-01-19T12:04:43.360Z,709.00
2023-01-19T12:05:43.342Z,710.00
2023-01-19T12:06:43.342Z,703.00
2023-01-19T12:07:43.345Z,696.00
2023-01-19T12:08:43.321Z,695.00
2023-01-19T12:09:43.321Z,701.00
2023-01-19T12:10:43.311Z,713.00
2023-01-19T12:11:43.322Z,717.00
2023-01-19T12:12:43.291Z,699.00
2023-01-19T12:13:43.277Z,679.00
2023-01-19T12:14:43.288Z,639.00
2023-01-19T12:15:43.268Z,600.00
2023-01-19T12:16:43.350Z,596.00
2023-01-19T12:17:43.255Z,602.00
2023-01-19T12:18:43.267Z,605.00
2023-01-19T12:19:43.258Z,517.00
2023-01-19T12:20:43.276Z,499.00
2023-01-19T12:21:43.280Z,484.00
2023-01-19T12:22:43.301Z,516.00
2023-01-19T12:23:43.303Z,586.00
2023-01-19T12:24:43.296Z,662.00
2023-01-19T12:25:43.315Z,704.00
2023-01-19T12:26:43.303Z,729.00
2023-01-19T12:27:43.317Z,748.00
2023-01-19T12:28:43.306Z,1101.00
2023-01-19T12:29:43.575Z,853.00
2023-01-19T12:30:43.430Z,771.00
2023-01-19T12:31:43.507Z,790.00
2023-01-19T12:32:43.278Z,791.00
2023-01-19T12:33:43.265Z,786.00
2023-01-19T12:34:43.261Z,786.00
2023-01-19T12:35:43.249Z,788.00
2023-01-19T12:36:43.223Z,788.00
2023-01-19T12:37:43.231Z,795.00
2023-01-19T12:38:43.195Z,794.00
2023-01-19T12:39:43.198Z,832.00
2023-01-19T12:40:43.190Z,824.00
2023-01-19T12:41:43.168Z,793.00
2023-01-19T12:42:43.165Z,799.00
2023-01-19T12:43:43.127Z,790.00
2023-01-19T12:44:43.115Z,792.00
2023-01-19T12:45:43.092Z,789.00
2023-01-19T13:41:42.210Z,709.00
2023-01-19T13:42:42.194Z,701.00
2023-01-19T13:43:42.185Z,700.00
2023-01-19T13:44:42.172Z,696.00
2023-01-19T13:45:42.157Z,696.00
2023-01-19T13:46:42.226Z,700.00
2023-01-19T13:47:42.131Z,697.00
2023-01-19T13:48:42.110Z,694.00
2023-01-19T13:49:42.091Z,690.00
2023-01-19T13:50:42.071Z,681.00
2023-01-19T13:51:42.063Z,684.00
2023-01-19T13:52:42.037Z,684.00
2023-01-19T13:53:42.035Z,681.00
2023-01-19T13:54:42.230Z,675.00
2023-01-19T13:55:42.039Z,679.00
2023-01-19T13:56:42.004Z,680.00
2023-01-19T13:57:42.005Z,686.00
2023-01-19T13:58:41.975Z,685.00
2023-01-19T13:59:41.968Z,675.00
2023-01-19T14:00:41.956Z,667.00
2023-01-19T14:01:42.098Z,671.00
2023-01-19T14:02:42.039Z,671.00
2023-01-19T14:03:41.916Z,673.00
2023-01-19T14:04:41.891Z,674.00
2023-01-19T14:05:41.918Z,667.00
2023-01-19T14:06:41.857Z,669.00
2023-01-19T14:07:41.870Z,668.00
2023-01-19T14:08:41.838Z,671.00
2023-01-19T14:09:41.810Z,670.00
2023-01-19T14:10:41.791Z,665.00
2023-01-19T14:11:41.785Z,660.00
2023-01-19T14:12:58.183Z,661.00
2023-01-19T14:13:42.785Z,661.00
2023-01-19T14:14:41.729Z,662.00
2023-01-19T14:15:41.783Z,661.00
2023-01-19T14:16:41.697Z,653.00
2023-01-19T14:17:41.684Z,651.00
2023-01-19T14:18:41.672Z,649.00
2023-01-19T14:19:41.681Z,656.00
2023-01-19T14:20:41.636Z,663.00
2023-01-19T14:21:41.644Z,659.00
2023-01-19T14:22:41.620Z,656.00
2023-01-19T14:23:41.591Z,653.00
2023-01-19T14:24:41.570Z,654.00
2023-01-19T14:25:41.549Z,657.00
2023-01-19T14:26:41.539Z,661.00
2023-01-19T14:27:41.520Z,658.00
2023-01-19T14:28:41.504Z,653.00
2023-01-19T14:29:41.483Z,648.00
2023-01-19T14:30:41.488Z,645.00
2023-01-19T14:31:41.528Z,646.00
2023-01-19T14:32:41.425Z,648.00
2023-01-19T14:33:41.464Z,644.00
2023-01-19T14:34:41.560Z,642.00
2023-01-19T14:35:41.379Z,643.00
2023-01-19T14:36:41.347Z,646.00
2023-01-19T14:37:41.337Z,650.00
2023-01-19T14:38:41.314Z,647.00
2023-01-19T14:39:41.297Z,644.00
2023-01-19T14:40:41.276Z,638.00
2023-01-19T14:41:41.255Z,635.00
2023-01-19T14:42:41.247Z,633.00
2023-01-19T14:43:41.245Z,635.00
2023-01-19T14:44:41.199Z,630.00
2023-01-19T14:45:41.188Z,625.00
2023-01-19T14:46:41.199Z,625.00
2023-01-19T14:47:41.140Z,622.00
2023-01-19T14:48:41.109Z,625.00
2023-01-19T14:49:41.101Z,624.00
2023-01-19T14:50:42.803Z,620.00
2023-01-19T14:52:41.042Z,619.00
2023-01-19T14:53:41.021Z,619.00
2023-01-19T14:54:41.019Z,621.00
2023-01-19T14:55:40.979Z,622.00
2023-01-19T14:56:40.971Z,615.00
2023-01-19T14:57:40.983Z,614.00
2023-01-19T14:58:40.928Z,611.00
2023-01-19T14:59:40.904Z,610.00
2023-01-19T15:00:40.913Z,615.00
2023-01-19T15:01:41.052Z,614.00
2023-01-19T15:02:40.910Z,613.00
2023-01-19T15:03:45.660Z,609.00
2023-01-19T15:05:40.808Z,613.00
2023-01-19T15:06:40.786Z,615.00
2023-01-19T15:07:40.781Z,611.00
2023-01-19T15:08:40.751Z,604.00
2023-01-19T15:09:40.751Z,606.00
2023-01-19T15:10:40.721Z,608.00
2023-01-19T15:11:40.709Z,612.00
2023-01-19T15:12:40.693Z,612.00
2023-01-19T15:13:40.695Z,609.00
2023-01-19T15:14:40.681Z,607.00
2023-01-19T15:15:40.657Z,602.00
2023-01-19T15:16:40.627Z,599.00
2023-01-19T15:17:40.624Z,602.00
2023-01-19T15:18:40.596Z,600.00
2023-01-19T15:19:40.599Z,594.00
2023-01-19T15:20:40.575Z,594.00
2023-01-19T15:21:40.547Z,593.00
2023-01-19T15:22:40.525Z,591.00
2023-01-19T15:23:40.510Z,593.00
2023-01-19T15:24:40.492Z,592.00
2023-01-19T15:25:40.478Z,588.00
2023-01-19T15:26:40.458Z,589.00
2023-01-19T15:27:40.460Z,589.00
2023-01-19T15:28:40.438Z,587.00
2023-01-19T15:29:40.489Z,586.00
2023-01-19T15:30:40.435Z,584.00
2023-01-19T15:31:40.419Z,582.00
2023-01-19T15:32:40.376Z,580.00
2023-01-19T15:33:40.352Z,584.00
2023-01-19T15:34:40.347Z,585.00
2023-01-19T15:35:40.395Z,584.00
2023-01-19T15:36:40.304Z,579.00
2023-01-19T15:37:40.289Z,577.00
2023-01-19T15:38:40.271Z,577.00